sensor_id;sensor_type;location;lat;lon;timestamp;temperature;humidity
8595;DHT22;4335;48.860;9.198;2023-11-19T00:00:31;8.20;99.90
8595;DHT22;4335;48.860;9.198;2023-11-19T00:02:59;8.20;99.90
8595;DHT22;4335;48.860;9.198;2023-11-19T00:05:33;8.20;99.90
8595;DHT22;4335;48.860;9.198;2023-11-19T00:08:00;8.20;99.90
8595;DHT22;4335;48.860;9.198;2023-11-19T00:10:28;8.20;99.90
8595;DHT22;4335;48.860;9.198;2023-11-19T00:12:58;8.20;99.90
8595;DHT22;4335;48.860;9.198;2023-11-19T00:15:25;8.30;99.90
8595;DHT22;4335;48.860;9.198;2023-11-19T00:17:52;8.30;99.90
8595;DHT22;4335;48.860;9.198;2023-11-19T00:20:23;8.30;99.90
8595;DHT22;4335;48.860;9.198;2023-11-19T00:22:51;8.30;99.90
8595;DHT22;4335;48.860;9.198;2023-11-19T00:25:20;8.30;99.90
8595;DHT22;4335;48.860;9.198;2023-11-19T00:27:47;8.30;99.90
8595;DHT22;4335;48.860;9.198;2023-11-19T00:30:16;8.30;99.90
8595;DHT22;4335;48.860;9.198;2023-11-19T00:32:44;8.30;99.90
8595;DHT22;4335;48.860;9.198;2023-11-19T00:35:11;8.30;99.90
8595;DHT22;4335;48.860;9.198;2023-11-19T00:37:39;8.30;99.90
8595;DHT22;4335;48.860;9.198;2023-11-19T00:40:27;8.40;99.90
8595;DHT22;4335;48.860;9.198;2023-11-19T00:42:54;8.40;99.90
8595;DHT22;4335;48.860;9.198;2023-11-19T00:45:22;8.40;99.90
8595;DHT22;4335;48.860;9.198;2023-11-19T00:47:49;8.40;99.90
8595;DHT22;4335;48.860;9.198;2023-11-19T00:50:17;8.40;99.90
8595;DHT22;4335;48.860;9.198;2023-11-19T00:52:44;8.50;99.90
8595;DHT22;4335;48.860;9.198;2023-11-19T00:55:19;8.50;99.90
8595;DHT22;4335;48.860;9.198;2023-11-19T00:57:48;8.50;99.90
8595;DHT22;4335;48.860;9.198;2023-11-19T01:00:16;8.50;99.90
8595;DHT22;4335;48.860;9.198;2023-11-19T01:02:45;8.60;99.90
8595;DHT22;4335;48.860;9.198;2023-11-19T01:05:15;8.60;99.90
8595;DHT22;4335;48.860;9.198;2023-11-19T01:07:43;8.60;99.90
8595;DHT22;4335;48.860;9.198;2023-11-19T01:10:14;8.60;99.90
8595;DHT22;4335;48.860;9.198;2023-11-19T01:12:42;8.60;99.90
8595;DHT22;4335;48.860;9.198;2023-11-19T01:15:13;8.60;99.90
8595;DHT22;4335;48.860;9.198;2023-11-19T01:17:43;8.60;99.90
8595;DHT22;4335;48.860;9.198;2023-11-19T01:20:11;8.60;99.90
8595;DHT22;4335;48.860;9.198;2023-11-19T01:22:39;8.70;99.90
8595;DHT22;4335;48.860;9.198;2023-11-19T01:25:15;8.70;99.90
8595;DHT22;4335;48.860;9.198;2023-11-19T01:27:43;8.70;99.90
8595;DHT22;4335;48.860;9.198;2023-11-19T01:30:11;8.70;99.90
8595;DHT22;4335;48.860;9.198;2023-11-19T01:32:41;8.70;99.90
8595;DHT22;4335;48.860;9.198;2023-11-19T01:35:08;8.70;99.90
8595;DHT22;4335;48.860;9.198;2023-11-19T01:37:36;8.70;99.90
8595;DHT22;4335;48.860;9.198;2023-11-19T01:40:04;8.70;99.90
8595;DHT22;4335;48.860;9.198;2023-11-19T01:42:36;8.70;99.90
8595;DHT22;4335;48.860;9.198;2023-11-19T01:45:07;8.70;99.90
8595;DHT22;4335;48.860;9.198;2023-11-19T01:47:35;8.80;99.90
8595;DHT22;4335;48.860;9.198;2023-11-19T01:50:10;8.80;99.90
8595;DHT22;4335;48.860;9.198;2023-11-19T01:52:38;8.80;99.90
8595;DHT22;4335;48.860;9.198;2023-11-19T01:55:14;8.90;99.90
8595;DHT22;4335;48.860;9.198;2023-11-19T01:57:42;8.90;99.90
8595;DHT22;4335;48.860;9.198;2023-11-19T02:00:13;9.00;99.90
8595;DHT22;4335;48.860;9.198;2023-11-19T02:02:42;9.00;99.90
8595;DHT22;4335;48.860;9.198;2023-11-19T02:05:12;9.10;99.90
8595;DHT22;4335;48.860;9.198;2023-11-19T02:07:40;9.20;99.90
8595;DHT22;4335;48.860;9.198;2023-11-19T02:10:10;9.20;99.90
8595;DHT22;4335;48.860;9.198;2023-11-19T02:12:41;9.30;99.90
8595;DHT22;4335;48.860;9.198;2023-11-19T02:15:10;9.30;99.90
8595;DHT22;4335;48.860;9.198;2023-11-19T02:17:40;9.30;99.90
8595;DHT22;4335;48.860;9.198;2023-11-19T02:20:16;9.30;99.90
8595;DHT22;4335;48.860;9.198;2023-11-19T02:22:53;9.30;99.90
8595;DHT22;4335;48.860;9.198;2023-11-19T02:25:28;9.40;99.90
8595;DHT22;4335;48.860;9.198;2023-11-19T02:28:01;9.40;99.90
8595;DHT22;4335;48.860;9.198;2023-11-19T02:30:35;9.40;99.90
8595;DHT22;4335;48.860;9.198;2023-11-19T02:33:02;9.40;99.90
8595;DHT22;4335;48.860;9.198;2023-11-19T02:35:32;9.40;99.90
8595;DHT22;4335;48.860;9.198;2023-11-19T02:38:00;9.50;99.90
8595;DHT22;4335;48.860;9.198;2023-11-19T02:40:29;9.50;99.90
8595;DHT22;4335;48.860;9.198;2023-11-19T02:42:58;9.50;99.90
8595;DHT22;4335;48.860;9.198;2023-11-19T02:45:26;9.50;99.90
8595;DHT22;4335;48.860;9.198;2023-11-19T02:47:59;9.50;99.90
8595;DHT22;4335;48.860;9.198;2023-11-19T02:50:28;9.50;99.90
8595;DHT22;4335;48.860;9.198;2023-11-19T02:53:00;9.50;99.90
8595;DHT22;4335;48.860;9.198;2023-11-19T02:55:33;9.60;99.90
8595;DHT22;4335;48.860;9.198;2023-11-19T02:58:05;9.60;99.90
8595;DHT22;4335;48.860;9.198;2023-11-19T03:00:48;9.50;99.90
8595;DHT22;4335;48.860;9.198;2023-11-19T03:03:20;9.60;99.90
8595;DHT22;4335;48.860;9.198;2023-11-19T03:05:48;9.50;99.90
8595;DHT22;4335;48.860;9.198;2023-11-19T03:08:24;9.50;99.90
8595;DHT22;4335;48.860;9.198;2023-11-19T03:10:51;9.50;99.90
8595;DHT22;4335;48.860;9.198;2023-11-19T03:13:21;9.50;99.90
8595;DHT22;4335;48.860;9.198;2023-11-19T03:15:48;9.50;99.90
8595;DHT22;4335;48.860;9.198;2023-11-19T03:18:23;9.50;99.90
8595;DHT22;4335;48.860;9.198;2023-11-19T03:20:57;9.50;99.90
8595;DHT22;4335;48.860;9.198;2023-11-19T03:23:25;9.50;99.90
8595;DHT22;4335;48.860;9.198;2023-11-19T03:25:54;9.50;99.90
8595;DHT22;4335;48.860;9.198;2023-11-19T03:28:24;9.50;99.90
8595;DHT22;4335;48.860;9.198;2023-11-19T03:30:51;9.50;99.90
8595;DHT22;4335;48.860;9.198;2023-11-19T03:33:25;9.50;99.90
8595;DHT22;4335;48.860;9.198;2023-11-19T03:35:56;9.50;99.90
8595;DHT22;4335;48.860;9.198;2023-11-19T03:38:24;9.50;99.90
8595;DHT22;4335;48.860;9.198;2023-11-19T03:40:54;9.50;99.90
8595;DHT22;4335;48.860;9.198;2023-11-19T03:43:21;9.50;99.90
8595;DHT22;4335;48.860;9.198;2023-11-19T03:45:50;9.50;99.90
8595;DHT22;4335;48.860;9.198;2023-11-19T03:48:18;9.50;99.90
8595;DHT22;4335;48.860;9.198;2023-11-19T03:50:45;9.50;99.90
8595;DHT22;4335;48.860;9.198;2023-11-19T03:53:13;9.60;99.90
8595;DHT22;4335;48.860;9.198;2023-11-19T03:55:42;9.60;99.90
8595;DHT22;4335;48.860;9.198;2023-11-19T03:58:09;9.60;99.90
8595;DHT22;4335;48.860;9.198;2023-11-19T04:00:38;9.60;99.90
8595;DHT22;4335;48.860;9.198;2023-11-19T04:03:08;9.50;99.90
8595;DHT22;4335;48.860;9.198;2023-11-19T04:05:35;9.50;99.90
8595;DHT22;4335;48.860;9.198;2023-11-19T04:08:05;9.50;99.90
8595;DHT22;4335;48.860;9.198;2023-11-19T04:10:36;9.50;99.90
8595;DHT22;4335;48.860;9.198;2023-11-19T04:13:09;9.50;99.90
8595;DHT22;4335;48.860;9.198;2023-11-19T04:15:37;9.50;99.90
8595;DHT22;4335;48.860;9.198;2023-11-19T04:18:09;9.50;99.90
8595;DHT22;4335;48.860;9.198;2023-11-19T04:20:36;9.50;99.90
8595;DHT22;4335;48.860;9.198;2023-11-19T04:23:04;9.50;99.90
8595;DHT22;4335;48.860;9.198;2023-11-19T04:25:31;9.50;99.90
8595;DHT22;4335;48.860;9.198;2023-11-19T04:27:59;9.50;99.90
8595;DHT22;4335;48.860;9.198;2023-11-19T04:30:26;9.50;99.90
8595;DHT22;4335;48.860;9.198;2023-11-19T04:32:53;9.50;99.90
8595;DHT22;4335;48.860;9.198;2023-11-19T04:35:24;9.50;99.90
8595;DHT22;4335;48.860;9.198;2023-11-19T04:37:52;9.60;99.90
8595;DHT22;4335;48.860;9.198;2023-11-19T04:40:26;9.60;99.90
8595;DHT22;4335;48.860;9.198;2023-11-19T04:42:56;9.60;99.90
8595;DHT22;4335;48.860;9.198;2023-11-19T04:45:26;9.60;99.90
8595;DHT22;4335;48.860;9.198;2023-11-19T04:47:54;9.60;99.90
8595;DHT22;4335;48.860;9.198;2023-11-19T04:50:26;9.60;99.90
8595;DHT22;4335;48.860;9.198;2023-11-19T04:52:54;9.60;99.90
8595;DHT22;4335;48.860;9.198;2023-11-19T04:55:24;9.70;99.90
8595;DHT22;4335;48.860;9.198;2023-11-19T04:57:54;9.70;99.90
8595;DHT22;4335;48.860;9.198;2023-11-19T05:00:24;9.80;99.90
8595;DHT22;4335;48.860;9.198;2023-11-19T05:02:55;9.70;99.90
8595;DHT22;4335;48.860;9.198;2023-11-19T05:05:24;9.70;99.90
8595;DHT22;4335;48.860;9.198;2023-11-19T05:07:58;9.80;99.90
8595;DHT22;4335;48.860;9.198;2023-11-19T05:10:27;9.80;99.90
8595;DHT22;4335;48.860;9.198;2023-11-19T05:12:57;9.80;99.90
8595;DHT22;4335;48.860;9.198;2023-11-19T05:15:31;9.80;99.90
8595;DHT22;4335;48.860;9.198;2023-11-19T05:18:05;9.80;99.90
8595;DHT22;4335;48.860;9.198;2023-11-19T05:20:36;9.90;99.90
8595;DHT22;4335;48.860;9.198;2023-11-19T05:23:04;9.90;99.90
8595;DHT22;4335;48.860;9.198;2023-11-19T05:25:34;9.90;99.90
8595;DHT22;4335;48.860;9.198;2023-11-19T05:28:09;9.90;99.90
8595;DHT22;4335;48.860;9.198;2023-11-19T05:30:36;10.00;99.90
8595;DHT22;4335;48.860;9.198;2023-11-19T05:33:04;10.00;99.90
8595;DHT22;4335;48.860;9.198;2023-11-19T05:35:42;10.10;99.90
8595;DHT22;4335;48.860;9.198;2023-11-19T05:38:12;10.20;99.90
8595;DHT22;4335;48.860;9.198;2023-11-19T05:40:40;10.20;99.90
8595;DHT22;4335;48.860;9.198;2023-11-19T05:43:08;10.20;99.90
8595;DHT22;4335;48.860;9.198;2023-11-19T05:45:35;10.30;99.90
8595;DHT22;4335;48.860;9.198;2023-11-19T05:48:03;10.30;99.90
8595;DHT22;4335;48.860;9.198;2023-11-19T05:50:36;10.40;99.90
8595;DHT22;4335;48.860;9.198;2023-11-19T05:53:08;10.40;99.90
8595;DHT22;4335;48.860;9.198;2023-11-19T05:55:36;10.40;99.90
8595;DHT22;4335;48.860;9.198;2023-11-19T05:58:12;10.40;99.90
8595;DHT22;4335;48.860;9.198;2023-11-19T06:00:46;10.50;99.90
8595;DHT22;4335;48.860;9.198;2023-11-19T06:03:14;10.50;99.90
8595;DHT22;4335;48.860;9.198;2023-11-19T06:05:44;10.50;99.90
8595;DHT22;4335;48.860;9.198;2023-11-19T06:08:26;10.50;99.90
8595;DHT22;4335;48.860;9.198;2023-11-19T06:10:53;10.50;99.90
8595;DHT22;4335;48.860;9.198;2023-11-19T06:13:22;10.50;99.90
8595;DHT22;4335;48.860;9.198;2023-11-19T06:15:49;10.50;99.90
8595;DHT22;4335;48.860;9.198;2023-11-19T06:18:17;10.50;99.90
8595;DHT22;4335;48.860;9.198;2023-11-19T06:20:45;10.50;99.90
8595;DHT22;4335;48.860;9.198;2023-11-19T06:23:13;10.50;99.90
8595;DHT22;4335;48.860;9.198;2023-11-19T06:25:45;10.50;99.90
8595;DHT22;4335;48.860;9.198;2023-11-19T06:28:12;10.60;99.90
8595;DHT22;4335;48.860;9.198;2023-11-19T06:30:46;10.60;99.90
8595;DHT22;4335;48.860;9.198;2023-11-19T06:33:17;10.60;99.90
8595;DHT22;4335;48.860;9.198;2023-11-19T06:35:44;10.70;99.90
8595;DHT22;4335;48.860;9.198;2023-11-19T06:38:12;10.70;99.90
8595;DHT22;4335;48.860;9.198;2023-11-19T06:40:46;10.70;99.90
8595;DHT22;4335;48.860;9.198;2023-11-19T06:43:14;10.80;99.90
8595;DHT22;4335;48.860;9.198;2023-11-19T06:45:44;10.80;99.90
8595;DHT22;4335;48.860;9.198;2023-11-19T06:48:11;10.80;99.90
8595;DHT22;4335;48.860;9.198;2023-11-19T06:50:38;10.90;99.90
8595;DHT22;4335;48.860;9.198;2023-11-19T06:53:09;10.90;99.90
8595;DHT22;4335;48.860;9.198;2023-11-19T06:55:37;10.90;99.90
8595;DHT22;4335;48.860;9.198;2023-11-19T06:58:06;10.90;99.90
8595;DHT22;4335;48.860;9.198;2023-11-19T07:00:37;10.90;99.90
8595;DHT22;4335;48.860;9.198;2023-11-19T07:03:04;11.00;99.90
8595;DHT22;4335;48.860;9.198;2023-11-19T07:05:36;11.00;99.90
8595;DHT22;4335;48.860;9.198;2023-11-19T07:08:07;11.00;99.90
8595;DHT22;4335;48.860;9.198;2023-11-19T07:10:34;11.00;99.90
8595;DHT22;4335;48.860;9.198;2023-11-19T07:13:09;11.00;99.90
8595;DHT22;4335;48.860;9.198;2023-11-19T07:15:48;11.10;99.90
8595;DHT22;4335;48.860;9.198;2023-11-19T07:18:16;11.10;99.90
8595;DHT22;4335;48.860;9.198;2023-11-19T07:20:46;11.10;99.90
8595;DHT22;4335;48.860;9.198;2023-11-19T07:23:17;11.10;99.90
8595;DHT22;4335;48.860;9.198;2023-11-19T07:25:44;11.10;99.90
8595;DHT22;4335;48.860;9.198;2023-11-19T07:28:14;11.00;99.90
8595;DHT22;4335;48.860;9.198;2023-11-19T07:30:42;11.10;99.90
8595;DHT22;4335;48.860;9.198;2023-11-19T07:33:10;11.10;99.90
8595;DHT22;4335;48.860;9.198;2023-11-19T07:35:42;11.00;99.90
8595;DHT22;4335;48.860;9.198;2023-11-19T07:38:12;11.10;99.90
8595;DHT22;4335;48.860;9.198;2023-11-19T07:40:43;11.10;99.90
8595;DHT22;4335;48.860;9.198;2023-11-19T07:43:10;11.10;99.90
8595;DHT22;4335;48.860;9.198;2023-11-19T07:45:39;11.10;99.90
8595;DHT22;4335;48.860;9.198;2023-11-19T07:48:10;11.10;99.90
8595;DHT22;4335;48.860;9.198;2023-11-19T07:50:41;11.10;99.90
8595;DHT22;4335;48.860;9.198;2023-11-19T07:53:14;11.10;99.90
8595;DHT22;4335;48.860;9.198;2023-11-19T07:55:44;11.10;99.90
8595;DHT22;4335;48.860;9.198;2023-11-19T07:58:11;11.10;99.90
8595;DHT22;4335;48.860;9.198;2023-11-19T08:00:40;11.20;99.90
8595;DHT22;4335;48.860;9.198;2023-11-19T08:03:11;11.20;99.90
8595;DHT22;4335;48.860;9.198;2023-11-19T08:05:38;11.20;99.90
8595;DHT22;4335;48.860;9.198;2023-11-19T08:08:13;11.20;99.90
8595;DHT22;4335;48.860;9.198;2023-11-19T08:10:40;11.20;99.90
8595;DHT22;4335;48.860;9.198;2023-11-19T08:13:07;11.30;99.90
8595;DHT22;4335;48.860;9.198;2023-11-19T08:15:46;11.30;99.90
8595;DHT22;4335;48.860;9.198;2023-11-19T08:18:13;11.40;99.90
8595;DHT22;4335;48.860;9.198;2023-11-19T08:20:43;11.50;99.90
8595;DHT22;4335;48.860;9.198;2023-11-19T08:23:11;11.50;99.90
8595;DHT22;4335;48.860;9.198;2023-11-19T08:25:38;11.60;99.90
8595;DHT22;4335;48.860;9.198;2023-11-19T08:28:06;11.70;99.90
8595;DHT22;4335;48.860;9.198;2023-11-19T08:30:33;11.90;99.90
8595;DHT22;4335;48.860;9.198;2023-11-19T08:33:02;11.90;99.90
8595;DHT22;4335;48.860;9.198;2023-11-19T08:35:31;12.00;99.90
8595;DHT22;4335;48.860;9.198;2023-11-19T08:37:59;12.00;99.90
8595;DHT22;4335;48.860;9.198;2023-11-19T08:40:27;12.10;99.90
8595;DHT22;4335;48.860;9.198;2023-11-19T08:42:55;12.10;99.90
8595;DHT22;4335;48.860;9.198;2023-11-19T08:45:29;12.10;99.90
8595;DHT22;4335;48.860;9.198;2023-11-19T08:48:07;12.20;99.90
8595;DHT22;4335;48.860;9.198;2023-11-19T08:50:34;12.20;99.90
8595;DHT22;4335;48.860;9.198;2023-11-19T08:53:05;12.20;99.90
8595;DHT22;4335;48.860;9.198;2023-11-19T08:55:35;12.30;99.90
8595;DHT22;4335;48.860;9.198;2023-11-19T08:58:03;12.40;99.90
8595;DHT22;4335;48.860;9.198;2023-11-19T09:00:49;12.40;99.90
8595;DHT22;4335;48.860;9.198;2023-11-19T09:03:17;12.50;99.90
8595;DHT22;4335;48.860;9.198;2023-11-19T09:05:46;12.60;99.90
8595;DHT22;4335;48.860;9.198;2023-11-19T09:08:16;12.80;99.90
8595;DHT22;4335;48.860;9.198;2023-11-19T09:10:47;12.90;99.90
8595;DHT22;4335;48.860;9.198;2023-11-19T09:13:14;13.00;99.90
8595;DHT22;4335;48.860;9.198;2023-11-19T09:15:42;13.10;99.90
8595;DHT22;4335;48.860;9.198;2023-11-19T09:18:17;13.10;99.90
8595;DHT22;4335;48.860;9.198;2023-11-19T09:20:47;13.10;99.90
8595;DHT22;4335;48.860;9.198;2023-11-19T09:23:22;13.20;99.90
8595;DHT22;4335;48.860;9.198;2023-11-19T09:25:59;13.20;99.90
8595;DHT22;4335;48.860;9.198;2023-11-19T09:28:30;13.30;99.90
8595;DHT22;4335;48.860;9.198;2023-11-19T09:31:00;13.20;99.90
8595;DHT22;4335;48.860;9.198;2023-11-19T09:33:34;13.20;99.90
8595;DHT22;4335;48.860;9.198;2023-11-19T09:36:02;13.30;99.90
8595;DHT22;4335;48.860;9.198;2023-11-19T09:38:30;13.30;99.90
8595;DHT22;4335;48.860;9.198;2023-11-19T09:41:00;13.20;99.90
8595;DHT22;4335;48.860;9.198;2023-11-19T09:43:38;13.30;99.90
8595;DHT22;4335;48.860;9.198;2023-11-19T09:46:14;13.20;99.90
8595;DHT22;4335;48.860;9.198;2023-11-19T09:48:44;13.20;99.90
8595;DHT22;4335;48.860;9.198;2023-11-19T09:51:14;13.30;99.90
8595;DHT22;4335;48.860;9.198;2023-11-19T09:53:40;13.50;99.90
8595;DHT22;4335;48.860;9.198;2023-11-19T09:56:15;13.50;99.90
8595;DHT22;4335;48.860;9.198;2023-11-19T09:58:43;13.70;99.90
8595;DHT22;4335;48.860;9.198;2023-11-19T10:01:11;13.70;99.90
8595;DHT22;4335;48.860;9.198;2023-11-19T10:03:39;13.90;99.90
8595;DHT22;4335;48.860;9.198;2023-11-19T10:06:14;14.00;99.90
8595;DHT22;4335;48.860;9.198;2023-11-19T10:08:45;14.00;99.90
8595;DHT22;4335;48.860;9.198;2023-11-19T10:11:12;14.10;99.90
8595;DHT22;4335;48.860;9.198;2023-11-19T10:13:44;14.10;99.90
8595;DHT22;4335;48.860;9.198;2023-11-19T10:16:14;14.10;99.90
8595;DHT22;4335;48.860;9.198;2023-11-19T10:18:48;14.00;99.90
8595;DHT22;4335;48.860;9.198;2023-11-19T10:21:19;14.00;99.90
8595;DHT22;4335;48.860;9.198;2023-11-19T10:23:58;14.00;99.90
8595;DHT22;4335;48.860;9.198;2023-11-19T10:26:26;14.00;99.90
8595;DHT22;4335;48.860;9.198;2023-11-19T10:29:00;14.00;99.90
8595;DHT22;4335;48.860;9.198;2023-11-19T10:31:28;14.10;99.90
8595;DHT22;4335;48.860;9.198;2023-11-19T10:33:55;14.30;99.90
8595;DHT22;4335;48.860;9.198;2023-11-19T10:36:39;14.40;99.90
8595;DHT22;4335;48.860;9.198;2023-11-19T10:39:10;14.40;99.90
8595;DHT22;4335;48.860;9.198;2023-11-19T10:41:41;14.40;99.90
8595;DHT22;4335;48.860;9.198;2023-11-19T10:44:12;14.50;99.90
8595;DHT22;4335;48.860;9.198;2023-11-19T10:46:40;14.40;99.90
8595;DHT22;4335;48.860;9.198;2023-11-19T10:49:13;14.50;99.90
8595;DHT22;4335;48.860;9.198;2023-11-19T10:51:45;14.40;99.90
8595;DHT22;4335;48.860;9.198;2023-11-19T10:54:16;14.40;99.90
8595;DHT22;4335;48.860;9.198;2023-11-19T10:56:55;14.40;99.90
8595;DHT22;4335;48.860;9.198;2023-11-19T10:59:26;14.50;99.90
8595;DHT22;4335;48.860;9.198;2023-11-19T11:01:56;14.40;99.90
8595;DHT22;4335;48.860;9.198;2023-11-19T11:04:24;14.50;99.90
8595;DHT22;4335;48.860;9.198;2023-11-19T11:06:58;14.40;99.90
8595;DHT22;4335;48.860;9.198;2023-11-19T11:09:28;14.50;99.90
8595;DHT22;4335;48.860;9.198;2023-11-19T11:11:57;14.60;99.90
8595;DHT22;4335;48.860;9.198;2023-11-19T11:14:26;14.50;99.90
8595;DHT22;4335;48.860;9.198;2023-11-19T11:16:54;14.50;99.90
8595;DHT22;4335;48.860;9.198;2023-11-19T11:19:26;14.40;99.90
8595;DHT22;4335;48.860;9.198;2023-11-19T11:21:54;14.40;99.90
8595;DHT22;4335;48.860;9.198;2023-11-19T11:24:45;14.40;99.90
8595;DHT22;4335;48.860;9.198;2023-11-19T11:30:31;14.50;99.90
8595;DHT22;4335;48.860;9.198;2023-11-19T11:33:23;14.50;99.90
8595;DHT22;4335;48.860;9.198;2023-11-19T11:35:58;14.50;99.90
8595;DHT22;4335;48.860;9.198;2023-11-19T11:38:29;14.60;99.90
8595;DHT22;4335;48.860;9.198;2023-11-19T11:41:18;14.60;99.90
8595;DHT22;4335;48.860;9.198;2023-11-19T11:43:50;14.50;99.90
8595;DHT22;4335;48.860;9.198;2023-11-19T11:49:31;14.50;99.90
8595;DHT22;4335;48.860;9.198;2023-11-19T11:52:01;14.50;99.90
8595;DHT22;4335;48.860;9.198;2023-11-19T11:54:30;14.60;99.90
8595;DHT22;4335;48.860;9.198;2023-11-19T11:57:09;14.60;99.90
8595;DHT22;4335;48.860;9.198;2023-11-19T11:59:47;14.60;99.90
8595;DHT22;4335;48.860;9.198;2023-11-19T12:02:16;14.60;99.90
8595;DHT22;4335;48.860;9.198;2023-11-19T12:04:50;14.60;99.90
8595;DHT22;4335;48.860;9.198;2023-11-19T12:07:19;14.70;99.90
8595;DHT22;4335;48.860;9.198;2023-11-19T12:09:49;14.80;99.90
8595;DHT22;4335;48.860;9.198;2023-11-19T12:12:27;14.80;99.90
8595;DHT22;4335;48.860;9.198;2023-11-19T12:15:06;14.80;99.90
8595;DHT22;4335;48.860;9.198;2023-11-19T12:17:50;14.80;99.90
8595;DHT22;4335;48.860;9.198;2023-11-19T12:20:19;14.90;99.90
8595;DHT22;4335;48.860;9.198;2023-11-19T12:22:47;14.90;99.90
8595;DHT22;4335;48.860;9.198;2023-11-19T12:25:16;14.90;99.90
8595;DHT22;4335;48.860;9.198;2023-11-19T12:28:02;14.90;99.90
8595;DHT22;4335;48.860;9.198;2023-11-19T12:30:30;14.90;99.90
8595;DHT22;4335;48.860;9.198;2023-11-19T12:32:58;14.90;99.90
8595;DHT22;4335;48.860;9.198;2023-11-19T12:35:38;14.90;99.90
8595;DHT22;4335;48.860;9.198;2023-11-19T12:38:08;14.90;99.90
8595;DHT22;4335;48.860;9.198;2023-11-19T12:40:36;14.80;99.90
8595;DHT22;4335;48.860;9.198;2023-11-19T12:43:07;14.80;99.90
8595;DHT22;4335;48.860;9.198;2023-11-19T12:45:37;14.70;99.90
8595;DHT22;4335;48.860;9.198;2023-11-19T12:48:08;14.70;99.90
8595;DHT22;4335;48.860;9.198;2023-11-19T12:50:52;14.70;99.90
8595;DHT22;4335;48.860;9.198;2023-11-19T12:53:24;14.70;99.90
8595;DHT22;4335;48.860;9.198;2023-11-19T12:55:52;14.60;99.90
8595;DHT22;4335;48.860;9.198;2023-11-19T12:58:33;14.70;99.90
8595;DHT22;4335;48.860;9.198;2023-11-19T13:01:02;14.70;99.90
8595;DHT22;4335;48.860;9.198;2023-11-19T13:03:31;14.80;99.90
8595;DHT22;4335;48.860;9.198;2023-11-19T13:06:03;14.90;99.90
8595;DHT22;4335;48.860;9.198;2023-11-19T13:08:38;15.10;99.90
8595;DHT22;4335;48.860;9.198;2023-11-19T13:11:06;15.10;99.90
8595;DHT22;4335;48.860;9.198;2023-11-19T13:13:57;15.20;99.90
8595;DHT22;4335;48.860;9.198;2023-11-19T13:16:25;15.20;99.90
8595;DHT22;4335;48.860;9.198;2023-11-19T13:18:56;15.30;99.90
8595;DHT22;4335;48.860;9.198;2023-11-19T13:21:25;15.40;99.90
8595;DHT22;4335;48.860;9.198;2023-11-19T13:23:58;15.30;99.90
8595;DHT22;4335;48.860;9.198;2023-11-19T13:26:26;15.20;99.90
8595;DHT22;4335;48.860;9.198;2023-11-19T13:28:53;15.20;99.90
8595;DHT22;4335;48.860;9.198;2023-11-19T13:31:22;15.10;99.90
8595;DHT22;4335;48.860;9.198;2023-11-19T13:33:49;15.10;99.90
8595;DHT22;4335;48.860;9.198;2023-11-19T13:36:20;14.90;99.90
8595;DHT22;4335;48.860;9.198;2023-11-19T13:38:49;14.80;99.90
8595;DHT22;4335;48.860;9.198;2023-11-19T13:41:17;14.70;99.90
8595;DHT22;4335;48.860;9.198;2023-11-19T13:43:44;14.70;99.90
8595;DHT22;4335;48.860;9.198;2023-11-19T13:46:12;14.70;99.90
8595;DHT22;4335;48.860;9.198;2023-11-19T13:48:41;14.80;99.90
8595;DHT22;4335;48.860;9.198;2023-11-19T13:51:08;14.80;99.90
8595;DHT22;4335;48.860;9.198;2023-11-19T13:53:36;14.90;99.90
8595;DHT22;4335;48.860;9.198;2023-11-19T13:56:05;14.90;99.90
8595;DHT22;4335;48.860;9.198;2023-11-19T13:58:32;15.00;99.90
8595;DHT22;4335;48.860;9.198;2023-11-19T14:01:01;15.00;99.90
8595;DHT22;4335;48.860;9.198;2023-11-19T14:03:28;14.90;99.90
8595;DHT22;4335;48.860;9.198;2023-11-19T14:06:02;14.90;99.90
8595;DHT22;4335;48.860;9.198;2023-11-19T14:08:30;15.00;99.90
8595;DHT22;4335;48.860;9.198;2023-11-19T14:10:57;15.00;99.90
8595;DHT22;4335;48.860;9.198;2023-11-19T14:13:28;15.00;99.90
8595;DHT22;4335;48.860;9.198;2023-11-19T14:15:58;15.00;99.90
8595;DHT22;4335;48.860;9.198;2023-11-19T14:18:26;15.00;99.90
8595;DHT22;4335;48.860;9.198;2023-11-19T14:20:53;15.00;99.90
8595;DHT22;4335;48.860;9.198;2023-11-19T14:23:24;15.00;99.90
8595;DHT22;4335;48.860;9.198;2023-11-19T14:25:56;15.00;99.90
8595;DHT22;4335;48.860;9.198;2023-11-19T14:28:23;14.90;99.90
8595;DHT22;4335;48.860;9.198;2023-11-19T14:30:57;14.90;99.90
8595;DHT22;4335;48.860;9.198;2023-11-19T14:33:24;14.90;99.90
8595;DHT22;4335;48.860;9.198;2023-11-19T14:35:52;14.90;99.90
8595;DHT22;4335;48.860;9.198;2023-11-19T14:38:19;14.90;99.90
8595;DHT22;4335;48.860;9.198;2023-11-19T14:40:48;14.80;99.90
8595;DHT22;4335;48.860;9.198;2023-11-19T14:43:15;14.80;99.90
8595;DHT22;4335;48.860;9.198;2023-11-19T14:45:43;14.70;99.90
8595;DHT22;4335;48.860;9.198;2023-11-19T14:48:19;14.70;99.90
8595;DHT22;4335;48.860;9.198;2023-11-19T14:50:49;14.70;99.90
8595;DHT22;4335;48.860;9.198;2023-11-19T14:53:20;14.70;99.90
8595;DHT22;4335;48.860;9.198;2023-11-19T14:55:49;14.60;99.90
8595;DHT22;4335;48.860;9.198;2023-11-19T14:58:23;14.60;99.90
8595;DHT22;4335;48.860;9.198;2023-11-19T15:00:54;14.50;99.90
8595;DHT22;4335;48.860;9.198;2023-11-19T15:03:25;14.50;99.90
8595;DHT22;4335;48.860;9.198;2023-11-19T15:05:52;14.40;99.90
8595;DHT22;4335;48.860;9.198;2023-11-19T15:08:20;14.40;99.90
8595;DHT22;4335;48.860;9.198;2023-11-19T15:10:51;14.30;99.90
8595;DHT22;4335;48.860;9.198;2023-11-19T15:13:22;14.30;99.90
8595;DHT22;4335;48.860;9.198;2023-11-19T15:15:49;14.30;99.90
8595;DHT22;4335;48.860;9.198;2023-11-19T15:18:21;14.30;99.90
8595;DHT22;4335;48.860;9.198;2023-11-19T15:20:48;14.30;99.90
8595;DHT22;4335;48.860;9.198;2023-11-19T15:23:16;14.30;99.90
8595;DHT22;4335;48.860;9.198;2023-11-19T15:25:43;14.20;99.90
8595;DHT22;4335;48.860;9.198;2023-11-19T15:28:15;14.20;99.90
8595;DHT22;4335;48.860;9.198;2023-11-19T15:30:43;14.20;99.90
8595;DHT22;4335;48.860;9.198;2023-11-19T15:33:10;14.10;99.90
8595;DHT22;4335;48.860;9.198;2023-11-19T15:35:47;14.10;99.90
8595;DHT22;4335;48.860;9.198;2023-11-19T15:38:14;14.00;99.90
8595;DHT22;4335;48.860;9.198;2023-11-19T15:40:45;14.00;99.90
8595;DHT22;4335;48.860;9.198;2023-11-19T15:43:12;14.00;99.90
8595;DHT22;4335;48.860;9.198;2023-11-19T15:45:41;13.90;99.90
8595;DHT22;4335;48.860;9.198;2023-11-19T15:48:15;13.80;99.90
8595;DHT22;4335;48.860;9.198;2023-11-19T15:50:44;13.70;99.90
8595;DHT22;4335;48.860;9.198;2023-11-19T15:53:11;13.70;99.90
8595;DHT22;4335;48.860;9.198;2023-11-19T15:55:41;13.60;99.90
8595;DHT22;4335;48.860;9.198;2023-11-19T15:58:14;13.60;99.90
8595;DHT22;4335;48.860;9.198;2023-11-19T16:00:51;13.50;99.90
8595;DHT22;4335;48.860;9.198;2023-11-19T16:03:22;13.40;99.90
8595;DHT22;4335;48.860;9.198;2023-11-19T16:05:52;13.30;99.90
8595;DHT22;4335;48.860;9.198;2023-11-19T16:08:23;13.20;99.90
8595;DHT22;4335;48.860;9.198;2023-11-19T16:10:50;13.20;99.90
8595;DHT22;4335;48.860;9.198;2023-11-19T16:13:20;13.20;99.90
8595;DHT22;4335;48.860;9.198;2023-11-19T16:15:53;13.20;99.90
8595;DHT22;4335;48.860;9.198;2023-11-19T16:18:20;13.10;99.90
8595;DHT22;4335;48.860;9.198;2023-11-19T16:20:47;13.00;99.90
8595;DHT22;4335;48.860;9.198;2023-11-19T16:23:15;12.90;99.90
8595;DHT22;4335;48.860;9.198;2023-11-19T16:25:51;12.90;99.90
8595;DHT22;4335;48.860;9.198;2023-11-19T16:28:18;12.90;99.90
8595;DHT22;4335;48.860;9.198;2023-11-19T16:30:46;12.90;99.90
8595;DHT22;4335;48.860;9.198;2023-11-19T16:33:25;12.80;99.90